createdAt,value
2023-04-18T00:01:30.520Z,70.50
2023-04-18T00:03:58.029Z,16.42
2023-04-18T00:06:25.915Z,17.88
2023-04-18T00:08:52.514Z,16.23
2023-04-18T00:11:19.016Z,17.92
2023-04-18T00:13:47.329Z,14.57
2023-04-18T00:16:13.925Z,16.80
2023-04-18T00:18:40.686Z,15.30
2023-04-18T00:21:08.605Z,14.48
2023-04-18T00:26:02.127Z,15.93
2023-04-18T00:28:28.624Z,16.55
2023-04-18T00:30:55.158Z,14.80
2023-04-18T00:33:21.707Z,12.82
2023-04-18T00:35:51.572Z,16.17
2023-04-18T00:38:18.171Z,15.40
2023-04-18T00:40:44.676Z,18.08
2023-04-18T00:43:13.660Z,14.88
2023-04-18T00:45:40.771Z,13.05
2023-04-18T00:48:07.463Z,14.40
2023-04-18T00:50:34.088Z,15.75
2023-04-18T00:53:01.492Z,14.80
2023-04-18T00:55:28.899Z,16.13
2023-04-18T00:57:56.112Z,15.95
2023-04-18T01:00:24.526Z,14.52
2023-04-18T01:02:53.294Z,15.70
2023-04-18T01:05:21.339Z,16.63
2023-04-18T01:07:48.237Z,12.73
2023-04-18T01:10:14.736Z,16.58
2023-04-18T01:12:41.771Z,13.90
2023-04-18T01:15:09.166Z,12.35
2023-04-18T01:17:36.465Z,15.00
2023-04-18T01:20:06.307Z,13.13
2023-04-18T01:22:33.167Z,13.88
2023-04-18T01:24:59.714Z,15.88
2023-04-18T01:27:26.258Z,15.68
2023-04-18T01:29:52.813Z,13.85
2023-04-18T01:32:20.539Z,16.05
2023-04-18T01:34:47.576Z,13.80
2023-04-18T01:37:14.168Z,15.40
2023-04-18T01:39:40.761Z,16.50
2023-04-18T01:42:07.278Z,13.88
2023-04-18T01:44:33.795Z,15.75
2023-04-18T01:47:00.492Z,14.70
2023-04-18T01:49:27.035Z,15.98
2023-04-18T01:51:53.512Z,15.55
2023-04-18T01:54:21.280Z,14.57
2023-04-18T01:56:47.831Z,15.15
2023-04-18T01:59:14.340Z,17.98
2023-04-18T02:01:40.905Z,15.27
2023-04-18T02:04:08.015Z,13.45
2023-04-18T02:06:34.602Z,13.95
2023-04-18T02:09:01.191Z,14.60
2023-04-18T02:11:27.812Z,15.25
2023-04-18T02:13:54.766Z,14.73
2023-04-18T02:16:21.752Z,15.73
2023-04-18T02:18:49.593Z,17.45
2023-04-18T02:21:16.223Z,15.57
2023-04-18T02:23:42.720Z,16.45
2023-04-18T02:26:09.292Z,14.82
2023-04-18T02:28:38.859Z,19.05
2023-04-18T02:31:06.217Z,18.38
2023-04-18T02:33:34.087Z,15.63
2023-04-18T02:36:01.655Z,23.38
2023-04-18T02:38:28.492Z,15.70
2023-04-18T02:40:54.992Z,13.68
2023-04-18T02:43:21.972Z,14.63
2023-04-18T02:45:48.518Z,17.88
2023-04-18T02:48:15.193Z,15.30
2023-04-18T02:50:41.781Z,16.20
2023-04-18T02:53:08.302Z,15.10
2023-04-18T02:55:49.025Z,15.40
2023-04-18T02:58:16.280Z,15.35
2023-04-18T03:01:00.310Z,19.85
2023-04-18T03:03:53.584Z,18.33
2023-04-18T03:06:42.696Z,14.85
2023-04-18T03:09:09.615Z,15.95
2023-04-18T03:11:41.042Z,19.13
2023-04-18T03:14:08.163Z,16.35
2023-04-18T03:16:42.199Z,15.00
2023-04-18T03:19:12.221Z,14.65
2023-04-18T03:21:38.883Z,17.08
2023-04-18T03:24:05.805Z,16.23
2023-04-18T03:26:34.239Z,16.38
2023-04-18T03:29:02.790Z,15.50
2023-04-18T03:31:29.334Z,16.70
2023-04-18T03:33:56.625Z,16.27
2023-04-18T03:36:25.406Z,16.77
2023-04-18T03:38:54.148Z,14.98
2023-04-18T03:41:20.636Z,18.30
2023-04-18T03:43:47.156Z,17.50
2023-04-18T03:46:13.747Z,15.48
2023-04-18T03:48:40.424Z,17.25
2023-04-18T03:51:10.306Z,16.60
2023-04-18T03:56:04.900Z,14.52
2023-04-18T03:58:49.754Z,18.38
2023-04-18T04:01:18.130Z,16.83
2023-04-18T04:03:44.757Z,14.40
2023-04-18T04:06:11.537Z,15.77
2023-04-18T04:08:38.477Z,17.85
2023-04-18T04:11:05.179Z,16.70
2023-04-18T04:13:32.973Z,14.02
2023-04-18T04:15:59.609Z,21.80
2023-04-18T04:18:30.991Z,17.70
2023-04-18T04:21:00.413Z,16.40
2023-04-18T04:23:42.069Z,15.82
2023-04-18T04:26:10.719Z,17.23
2023-04-18T04:28:46.473Z,18.02
2023-04-18T04:31:16.409Z,16.00
2023-04-18T04:33:43.648Z,14.80
2023-04-18T04:36:18.593Z,16.73
2023-04-18T04:38:47.279Z,15.27
2023-04-18T04:41:14.001Z,14.93
2023-04-18T04:43:41.234Z,15.93
2023-04-18T04:46:08.984Z,14.50
2023-04-18T04:48:35.552Z,16.00
2023-04-18T04:53:30.531Z,15.93
2023-04-18T04:55:58.443Z,15.80
2023-04-18T04:58:25.197Z,14.07
2023-04-18T05:01:12.958Z,15.88
2023-04-18T05:03:40.672Z,16.60
2023-04-18T05:06:07.391Z,17.63
2023-04-18T05:08:34.650Z,16.98
2023-04-18T05:11:01.939Z,13.35
2023-04-18T05:13:28.409Z,16.85
2023-04-18T05:15:55.600Z,16.20
2023-04-18T05:18:22.125Z,15.77
2023-04-18T05:20:49.324Z,15.50
2023-04-18T05:23:16.227Z,16.83
2023-04-18T05:25:42.716Z,16.45
2023-04-18T05:28:09.585Z,16.08
2023-04-18T05:30:36.189Z,17.33
2023-04-18T05:33:02.772Z,15.10
2023-04-18T05:35:29.241Z,14.35
2023-04-18T05:37:55.779Z,18.02
2023-04-18T05:40:22.693Z,16.40
2023-04-18T05:42:49.214Z,17.00
2023-04-18T05:45:15.792Z,15.38
2023-04-18T05:47:42.340Z,15.75
2023-04-18T05:50:09.140Z,15.77
2023-04-18T05:52:37.149Z,16.42
2023-04-18T05:57:30.205Z,16.90
2023-04-18T05:59:56.850Z,15.73
2023-04-18T06:02:23.642Z,14.45
2023-04-18T06:04:50.386Z,18.52
2023-04-18T06:07:17.213Z,17.42
2023-04-18T06:09:43.711Z,17.05
2023-04-18T06:12:10.809Z,14.40
2023-04-18T06:14:37.410Z,14.32
2023-04-18T06:17:03.932Z,16.65
2023-04-18T06:19:30.458Z,17.88
2023-04-18T06:21:56.956Z,14.13
2023-04-18T06:24:23.791Z,14.23
2023-04-18T06:26:50.345Z,19.42
2023-04-18T06:29:18.099Z,15.77
2023-04-18T06:31:46.588Z,20.77
2023-04-18T06:34:13.808Z,16.98
2023-04-18T06:36:40.526Z,16.63
2023-04-18T06:39:06.989Z,12.98
2023-04-18T06:41:33.523Z,15.93
2023-04-18T06:44:04.076Z,16.08
2023-04-18T06:46:32.106Z,18.50
2023-04-18T06:48:58.803Z,15.07
2023-04-18T06:51:25.270Z,16.25
2023-04-18T06:53:53.718Z,17.55
2023-04-18T06:56:20.773Z,14.38
2023-04-18T06:58:47.861Z,16.25
2023-04-18T07:01:14.460Z,15.98
2023-04-18T07:03:41.069Z,15.63
2023-04-18T07:06:08.893Z,13.63
2023-04-18T07:08:35.746Z,13.70
2023-04-18T07:11:02.360Z,13.85
2023-04-18T07:13:28.970Z,15.13
2023-04-18T07:15:55.560Z,15.80
2023-04-18T07:18:34.288Z,16.50
2023-04-18T07:21:43.265Z,16.60
2023-04-18T07:23:53.660Z,16.10
2023-04-18T07:26:20.495Z,17.70
2023-04-18T07:28:47.015Z,14.02
2023-04-18T07:31:14.415Z,16.30
2023-04-18T07:33:41.089Z,17.40
2023-04-18T07:36:07.703Z,13.95
2023-04-18T07:38:37.380Z,16.25
2023-04-18T07:41:03.964Z,13.70
2023-04-18T07:43:30.601Z,17.98
2023-04-18T07:45:57.174Z,17.30
2023-04-18T07:48:25.156Z,14.38
2023-04-18T07:53:18.067Z,12.60
2023-04-18T07:55:45.290Z,13.40
2023-04-18T07:58:11.928Z,16.90
2023-04-18T08:00:39.211Z,15.43
2023-04-18T08:03:07.502Z,15.85
2023-04-18T08:05:34.917Z,14.80
2023-04-18T08:08:01.560Z,14.90
2023-04-18T08:10:28.184Z,13.55
2023-04-18T08:12:54.734Z,15.48
2023-04-18T08:15:21.277Z,15.70
2023-04-18T08:17:49.096Z,15.30
2023-04-18T08:22:57.649Z,13.20
2023-04-18T08:25:31.568Z,14.25
2023-04-18T08:27:58.103Z,16.30
2023-04-18T08:30:24.626Z,13.85
2023-04-18T08:32:51.572Z,15.52
2023-04-18T08:35:18.568Z,16.92
2023-04-18T08:37:45.091Z,15.32
2023-04-18T08:40:11.854Z,13.77
2023-04-18T08:42:38.750Z,16.42
2023-04-18T08:45:09.450Z,15.70
2023-04-18T08:47:35.966Z,15.55
2023-04-18T08:50:02.566Z,13.50
2023-04-18T08:52:30.996Z,17.27
2023-04-18T08:54:57.557Z,13.27
2023-04-18T08:57:27.346Z,13.55
2023-04-18T08:59:54.485Z,14.48
2023-04-18T09:02:24.200Z,18.08
2023-04-18T09:04:53.520Z,14.45
2023-04-18T09:07:28.416Z,42.50
2023-04-18T09:09:59.826Z,129.82
2023-04-18T09:12:27.997Z,102.60
2023-04-18T09:14:59.585Z,38.13
2023-04-18T09:17:33.037Z,49.78
2023-04-18T09:20:01.081Z,66.70
2023-04-18T09:23:01.088Z,84.57
2023-04-18T09:25:34.873Z,183.73
2023-04-18T09:28:02.800Z,31.60
2023-04-18T09:30:37.869Z,44.25
2023-04-18T09:33:09.677Z,21.95
2023-04-18T09:35:37.659Z,27.60
2023-04-18T09:38:05.239Z,37.97
2023-04-18T09:40:32.485Z,18.20
2023-04-18T09:42:59.320Z,12.05
2023-04-18T09:45:26.514Z,249.65
2023-04-18T09:47:53.561Z,742.83
2023-04-18T09:50:20.814Z,877.25
2023-04-18T09:52:48.503Z,875.47
2023-04-18T09:55:17.503Z,905.80
2023-04-18T09:57:48.100Z,787.42
2023-04-18T10:00:26.355Z,906.22
2023-04-18T10:10:15.796Z,651.13
2023-04-18T10:12:42.380Z,1223.70
2023-04-18T10:15:10.004Z,541.15
2023-04-18T10:17:52.582Z,538.70
2023-04-18T10:20:29.147Z,1407.05
2023-04-18T10:22:57.142Z,1238.87
2023-04-18T10:25:38.870Z,1154.50
2023-04-18T10:28:06.683Z,979.03
2023-04-18T10:30:42.245Z,555.22
2023-04-18T10:33:37.159Z,568.27
2023-04-18T10:36:09.074Z,572.70
2023-04-18T10:38:38.618Z,712.17
2023-04-18T10:41:28.450Z,9.18
2023-04-18T10:44:09.980Z,11.10
2023-04-18T10:46:39.991Z,12.45
2023-04-18T10:49:14.141Z,9.68
2023-04-18T10:51:41.150Z,9.52
2023-04-18T10:54:09.766Z,11.95
2023-04-18T10:56:36.604Z,11.57
2023-04-18T10:59:03.640Z,11.25
2023-04-18T11:01:32.893Z,10.23
2023-04-18T11:04:00.183Z,9.52
2023-04-18T11:06:27.648Z,9.10
2023-04-18T11:09:11.600Z,9.45
2023-04-18T11:11:38.155Z,9.32
2023-04-18T11:14:04.646Z,8.93
2023-04-18T11:16:32.952Z,8.80
2023-04-18T11:18:59.930Z,9.93
2023-04-18T11:21:30.419Z,7.95
2023-04-18T11:23:58.047Z,8.88
2023-04-18T11:26:29.017Z,9.55
2023-04-18T11:28:58.511Z,10.43
2023-04-18T11:31:26.147Z,10.57
2023-04-18T11:33:56.139Z,8.15
2023-04-18T11:36:22.714Z,16.05
2023-04-18T11:38:49.165Z,10.60
2023-04-18T11:41:16.032Z,12.57
2023-04-18T11:43:46.480Z,10.60
2023-04-18T11:46:13.818Z,10.00
2023-04-18T11:48:42.216Z,10.77
2023-04-18T11:51:32.273Z,10.35
2023-04-18T11:53:58.818Z,10.80
2023-04-18T11:56:25.414Z,12.10
2023-04-18T11:58:52.005Z,10.07
2023-04-18T12:01:20.493Z,9.80
2023-04-18T12:04:03.767Z,10.48
2023-04-18T12:06:52.119Z,10.90
2023-04-18T12:09:19.414Z,9.73
2023-04-18T12:11:58.078Z,10.63
2023-04-18T12:14:24.616Z,10.98
2023-04-18T12:16:52.049Z,10.88
2023-04-18T12:19:20.780Z,8.77
2023-04-18T12:22:01.578Z,8.32
2023-04-18T12:24:29.874Z,8.63
2023-04-18T12:26:58.082Z,7.53
2023-04-18T12:29:25.612Z,6.32
2023-04-18T12:31:52.230Z,6.20
2023-04-18T12:34:18.836Z,8.57
2023-04-18T12:36:45.988Z,8.38
2023-04-18T12:39:12.698Z,6.25
2023-04-18T12:41:39.563Z,6.88
2023-04-18T12:44:06.697Z,5.93
2023-04-18T12:46:33.347Z,6.70
2023-04-18T12:49:00.288Z,5.28
2023-04-18T12:51:29.043Z,5.43
2023-04-18T12:53:56.335Z,6.47
2023-04-18T12:56:22.822Z,6.10
2023-04-18T12:58:49.349Z,5.85
2023-04-18T13:01:16.495Z,8.43
2023-04-18T13:03:43.265Z,7.53
2023-04-18T13:06:09.836Z,6.18
2023-04-18T13:08:37.470Z,5.00
2023-04-18T13:11:04.623Z,5.53
2023-04-18T13:13:31.082Z,5.53
2023-04-18T13:15:57.577Z,5.20
2023-04-18T13:18:24.437Z,5.07
2023-04-18T13:20:51.537Z,7.13
2023-04-18T13:23:18.053Z,6.10
2023-04-18T13:25:44.964Z,6.95
2023-04-18T13:28:11.487Z,11.68
2023-04-18T13:30:38.020Z,530.20
2023-04-18T13:33:04.591Z,1016.00
2023-04-18T13:35:31.240Z,636.90
2023-04-18T13:37:57.785Z,408.77
2023-04-18T13:40:25.098Z,1999.90
2023-04-18T13:42:51.575Z,574.97
2023-04-18T13:45:18.714Z,978.20
2023-04-18T13:47:45.248Z,577.30
2023-04-18T13:50:11.873Z,561.75
2023-04-18T13:52:38.416Z,558.90
2023-04-18T13:55:05.384Z,576.20
2023-04-18T13:57:33.680Z,637.77
2023-04-18T14:00:00.346Z,552.00
2023-04-18T14:02:27.000Z,574.07
2023-04-18T14:04:54.852Z,574.30
2023-04-18T14:07:21.554Z,574.45
2023-04-18T14:09:48.184Z,575.53
2023-04-18T14:12:14.722Z,557.70
2023-04-18T14:14:41.826Z,574.70
2023-04-18T14:17:08.346Z,559.63
2023-04-18T14:19:35.040Z,557.40
2023-04-18T14:22:01.577Z,560.40
2023-04-18T14:24:28.157Z,560.60
2023-04-18T14:26:54.833Z,597.40
2023-04-18T14:29:21.390Z,558.60
2023-04-18T14:31:48.116Z,633.13
2023-04-18T14:34:14.887Z,560.20
2023-04-18T14:36:41.477Z,575.45
2023-04-18T14:39:08.352Z,833.45
2023-04-18T14:41:34.923Z,555.37
2023-04-18T14:44:02.164Z,578.85
2023-04-18T14:46:29.230Z,578.83
2023-04-18T14:48:56.872Z,575.00
2023-04-18T14:51:23.664Z,540.78
2023-04-18T14:53:50.252Z,565.55
2023-04-18T14:56:20.899Z,570.65
2023-04-18T14:58:47.595Z,544.13
2023-04-18T15:01:14.350Z,573.72
2023-04-18T15:03:41.000Z,566.72
2023-04-18T15:06:07.794Z,568.87
2023-04-18T15:08:34.398Z,559.58
2023-04-18T15:11:01.353Z,559.85
2023-04-18T15:13:28.003Z,575.35
2023-04-18T15:15:57.113Z,568.50
2023-04-18T15:18:23.638Z,577.53
2023-04-18T15:20:51.715Z,559.03
2023-04-18T15:25:45.316Z,542.80
2023-04-18T15:28:15.993Z,543.35
2023-04-18T15:30:42.553Z,539.70
2023-04-18T15:35:35.843Z,516.40
2023-04-18T15:38:02.390Z,522.78
2023-04-18T15:40:28.975Z,546.22
2023-04-18T15:42:57.840Z,549.75
2023-04-18T15:45:24.408Z,551.92
2023-04-18T15:47:51.544Z,513.40
2023-04-18T15:50:18.175Z,537.93
2023-04-18T15:52:44.655Z,553.53
2023-04-18T15:55:13.053Z,553.33
2023-04-18T15:57:40.279Z,553.38
2023-04-18T16:00:11.835Z,540.25
2023-04-18T16:02:38.582Z,533.80
2023-04-18T16:05:05.575Z,539.72
2023-04-18T16:07:32.176Z,567.27
2023-04-18T16:09:58.826Z,567.30
2023-04-18T16:12:25.409Z,555.83
2023-04-18T16:14:51.908Z,530.67
2023-04-18T16:17:18.438Z,508.83
2023-04-18T16:19:44.962Z,522.60
2023-04-18T16:22:12.364Z,528.80
2023-04-18T16:24:40.855Z,556.13
2023-04-18T16:27:08.590Z,572.40
2023-04-18T16:29:35.390Z,543.80
2023-04-18T16:32:01.913Z,572.10
2023-04-18T16:34:28.434Z,547.08
2023-04-18T16:36:55.734Z,546.88
2023-04-18T16:39:22.339Z,550.10
2023-04-18T16:41:48.876Z,547.33
2023-04-18T16:44:15.640Z,549.15
2023-04-18T16:46:42.481Z,559.30
2023-04-18T16:49:09.027Z,567.13
2023-04-18T16:51:37.149Z,572.65
2023-04-18T16:54:04.379Z,556.78
2023-04-18T16:58:58.059Z,571.08
2023-04-18T17:01:24.628Z,552.53
2023-04-18T17:03:51.487Z,528.70
2023-04-18T17:06:19.374Z,569.42
2023-04-18T17:11:12.487Z,549.33
2023-04-18T17:13:38.968Z,549.28
2023-04-18T17:16:06.820Z,550.03
2023-04-18T17:21:00.021Z,536.15
2023-04-18T17:23:26.748Z,570.50
2023-04-18T17:25:53.299Z,550.90
2023-04-18T17:28:21.209Z,549.38
2023-04-18T17:30:47.777Z,546.65
2023-04-18T17:33:14.537Z,565.35
2023-04-18T17:35:44.063Z,547.83
2023-04-18T17:38:10.798Z,542.70
2023-04-18T17:40:37.346Z,566.05
2023-04-18T17:43:03.820Z,550.08
2023-04-18T17:45:30.540Z,549.47
2023-04-18T17:47:58.196Z,548.25
2023-04-18T17:50:24.983Z,547.28
2023-04-18T17:52:51.679Z,548.08
2023-04-18T17:55:18.699Z,549.75
2023-04-18T17:57:45.335Z,548.88
2023-04-18T18:00:13.829Z,549.75
2023-04-18T18:02:44.747Z,548.83
2023-04-18T18:05:13.355Z,548.42
2023-04-18T18:07:42.844Z,547.53
2023-04-18T18:10:10.060Z,548.00
2023-04-18T18:12:38.043Z,548.58
2023-04-18T18:15:05.222Z,548.63
2023-04-18T18:17:31.868Z,547.47
2023-04-18T18:19:58.383Z,547.00
2023-04-18T18:22:26.048Z,545.92
2023-04-18T18:24:52.825Z,544.80
2023-04-18T18:27:20.291Z,550.40
2023-04-18T18:29:48.031Z,507.42
2023-04-18T18:32:14.616Z,523.08
2023-04-18T18:34:41.124Z,528.70
2023-04-18T18:39:34.862Z,527.70
2023-04-18T18:42:02.136Z,538.20
2023-04-18T18:49:23.485Z,524.45
2023-04-18T18:54:16.542Z,550.58
2023-04-18T18:56:44.207Z,529.55
2023-04-18T18:59:11.121Z,544.95
2023-04-18T19:01:38.947Z,519.58
2023-04-18T19:04:05.696Z,545.60
2023-04-18T19:06:32.376Z,564.50
2023-04-18T19:08:59.035Z,545.03
2023-04-18T19:11:26.678Z,544.30
2023-04-18T19:13:53.246Z,544.97
2023-04-18T19:16:19.846Z,543.83
2023-04-18T19:18:47.326Z,543.33
2023-04-18T19:21:13.995Z,543.58
2023-04-18T19:23:41.853Z,542.78
2023-04-18T19:26:09.270Z,552.55
2023-04-18T19:28:36.026Z,559.67
2023-04-18T19:31:02.569Z,542.47
2023-04-18T19:33:29.281Z,542.72
2023-04-18T19:35:55.884Z,558.63
2023-04-18T19:38:22.422Z,563.60
2023-04-18T19:40:49.424Z,565.10
2023-04-18T19:43:16.073Z,561.20
2023-04-18T19:45:42.655Z,544.00
2023-04-18T19:48:09.338Z,544.03
2023-04-18T19:50:35.861Z,543.78
2023-04-18T19:53:02.374Z,543.72
2023-04-18T19:55:28.903Z,543.17
2023-04-18T19:57:56.579Z,543.33
2023-04-18T20:00:23.083Z,545.47
2023-04-18T20:02:49.708Z,543.72
2023-04-18T20:05:18.483Z,544.33
2023-04-18T20:07:45.033Z,543.58
2023-04-18T20:10:11.582Z,543.30
2023-04-18T20:12:38.027Z,542.85
2023-04-18T20:15:05.682Z,543.15
2023-04-18T20:17:34.385Z,542.63
2023-04-18T20:20:01.444Z,542.15
2023-04-18T20:22:28.180Z,556.88
2023-04-18T20:27:24.076Z,541.17
2023-04-18T20:29:50.642Z,541.95
2023-04-18T20:32:17.227Z,541.08
2023-04-18T20:34:43.807Z,541.67
2023-04-18T20:39:38.144Z,559.55
2023-04-18T20:42:04.870Z,546.20
2023-04-18T20:44:34.289Z,552.60
2023-04-18T20:47:01.073Z,562.20
2023-04-18T20:49:29.438Z,556.25
2023-04-18T20:51:55.934Z,556.00
2023-04-18T20:54:22.550Z,561.85
2023-04-18T20:56:49.166Z,542.80
2023-04-18T20:59:15.661Z,542.58
2023-04-18T21:01:42.626Z,541.88
2023-04-18T21:04:09.296Z,541.33
2023-04-18T21:06:36.643Z,542.03
2023-04-18T21:11:29.752Z,558.10
2023-04-18T21:13:56.267Z,556.35
2023-04-18T21:16:23.950Z,553.35
2023-04-18T21:18:50.619Z,545.90
2023-04-18T21:21:17.687Z,545.08
2023-04-18T21:23:44.510Z,533.83
2023-04-18T21:26:13.073Z,559.83
2023-04-18T21:29:08.801Z,560.67
2023-04-18T21:31:35.445Z,553.67
2023-04-18T21:34:04.879Z,548.13
2023-04-18T21:36:32.105Z,547.95
2023-04-18T21:39:00.687Z,542.55
2023-04-18T21:41:27.504Z,562.83
2023-04-18T21:43:54.019Z,544.55
2023-04-18T21:46:20.762Z,542.55
2023-04-18T21:48:47.932Z,543.63
2023-04-18T21:51:16.206Z,542.05
2023-04-18T21:53:42.837Z,542.67
2023-04-18T21:56:09.635Z,542.25
2023-04-18T21:58:36.145Z,541.13
2023-04-18T22:01:03.127Z,540.53
2023-04-18T22:03:29.873Z,551.85
2023-04-18T22:05:56.646Z,534.83
2023-04-18T22:08:25.828Z,550.03
2023-04-18T22:10:57.800Z,549.25
2023-04-18T22:13:25.231Z,558.80
2023-04-18T22:18:18.830Z,555.88
2023-04-18T22:20:46.833Z,549.83
2023-04-18T22:23:13.989Z,552.57
2023-04-18T22:25:40.877Z,555.10
2023-04-18T22:28:07.486Z,557.43
2023-04-18T22:30:34.896Z,551.50
2023-04-18T22:33:01.676Z,548.90
2023-04-18T22:35:28.266Z,536.40
2023-04-18T22:37:55.504Z,544.10
2023-04-18T22:40:22.109Z,550.60
2023-04-18T22:42:48.582Z,546.00
2023-04-18T22:45:15.509Z,555.97
2023-04-18T22:47:42.104Z,555.77
2023-04-18T22:50:08.853Z,554.07
2023-04-18T22:52:35.482Z,546.20
2023-04-18T22:55:02.854Z,534.10
2023-04-18T22:57:29.665Z,551.10
2023-04-18T22:59:56.553Z,552.05
2023-04-18T23:02:23.201Z,542.00
2023-04-18T23:04:50.558Z,550.45
2023-04-18T23:09:43.592Z,559.72
2023-04-18T23:12:10.061Z,557.93
2023-04-18T23:14:36.567Z,553.50
2023-04-18T23:17:03.151Z,542.75
2023-04-18T23:19:29.702Z,540.85
2023-04-18T23:21:56.203Z,540.85
2023-04-18T23:24:22.715Z,540.72
2023-04-18T23:26:49.187Z,540.45
2023-04-18T23:29:15.656Z,552.63
2023-04-18T23:34:09.823Z,535.30
2023-04-18T23:36:37.123Z,534.20
2023-04-18T23:39:04.121Z,556.80
2023-04-18T23:41:30.745Z,539.92
2023-04-18T23:46:23.997Z,540.65
2023-04-18T23:48:50.856Z,559.20
2023-04-18T23:51:17.345Z,539.80
2023-04-18T23:53:43.887Z,541.85
2023-04-18T23:56:10.400Z,542.83
2023-04-18T23:58:36.860Z,542.33
